createdAt,value
2022-12-18T13:16:08.866Z,32.31
2022-12-18T13:18:37.497Z,32.19
2022-12-18T13:21:19.187Z,32.35
2022-12-18T13:23:47.574Z,32.61
2022-12-18T13:26:23.260Z,33.14
2022-12-18T13:28:57.888Z,32.59
2022-12-18T13:31:41.863Z,32.91
2022-12-18T13:34:28.002Z,33.14
2022-12-18T13:37:32.648Z,33.58
2022-12-18T13:40:01.143Z,33.83
2022-12-18T13:42:40.086Z,33.94
2022-12-18T13:45:39.855Z,34.11
2022-12-18T13:48:22.060Z,33.65
2022-12-18T13:51:00.534Z,33.78
2022-12-18T13:53:34.004Z,33.92
2022-12-18T13:56:04.511Z,34.11
2022-12-18T13:58:33.224Z,34.29
2022-12-18T14:01:01.606Z,34.54
2022-12-18T14:03:30.956Z,34.79
2022-12-18T14:06:09.662Z,34.42
2022-12-18T14:08:43.060Z,34.34
2022-12-18T14:11:22.849Z,34.47
2022-12-18T14:13:52.120Z,34.98
2022-12-18T14:16:20.875Z,35.29
2022-12-18T14:19:04.477Z,35.20
2022-12-18T14:21:35.264Z,34.96
2022-12-18T14:24:08.070Z,34.92
2022-12-18T14:26:36.479Z,34.85
2022-12-18T14:29:24.093Z,35.27
2022-12-18T14:32:18.150Z,35.76
2022-12-18T14:34:53.898Z,36.23
2022-12-18T14:37:27.655Z,36.20
2022-12-18T14:40:08.971Z,36.57
2022-12-18T14:42:39.033Z,36.46
2022-12-18T14:45:41.516Z,36.36
2022-12-18T14:48:23.643Z,36.17
2022-12-18T14:50:59.777Z,35.85
2022-12-18T14:53:58.747Z,35.90
2022-12-18T14:56:32.959Z,35.29
2022-12-18T14:59:04.286Z,35.49
2022-12-18T15:01:36.282Z,35.18
2022-12-18T15:04:07.018Z,34.97
2022-12-18T15:06:39.233Z,34.93
2022-12-18T15:09:23.765Z,34.92
2022-12-18T15:11:58.049Z,34.59
2022-12-18T15:14:35.767Z,35.00
2022-12-18T15:17:22.471Z,34.84
2022-12-18T15:19:59.856Z,34.37
2022-12-18T15:22:35.804Z,34.49
2022-12-18T15:25:23.022Z,34.82
2022-12-18T15:27:51.259Z,34.81
2022-12-18T15:30:21.882Z,34.91
2022-12-18T15:32:52.288Z,35.06
2022-12-18T15:35:23.725Z,35.50
2022-12-18T15:37:53.227Z,35.25
2022-12-18T15:40:25.138Z,35.14
2022-12-18T15:42:56.368Z,35.13
2022-12-18T15:45:24.528Z,35.36
2022-12-18T15:47:53.683Z,34.88
2022-12-18T15:50:24.014Z,35.00
2022-12-18T15:52:54.904Z,35.14
2022-12-18T15:55:25.358Z,35.16
2022-12-18T15:57:53.403Z,35.21
2022-12-18T16:00:21.492Z,35.14
2022-12-18T16:02:49.618Z,35.30
2022-12-18T16:05:20.837Z,35.97
2022-12-18T16:07:49.271Z,35.53
2022-12-18T16:10:17.454Z,35.77
2022-12-18T16:12:45.772Z,35.76
2022-12-18T16:15:18.521Z,36.00
2022-12-18T16:17:50.731Z,36.40
2022-12-18T16:20:23.331Z,36.43
2022-12-18T16:22:52.445Z,37.05
2022-12-18T16:25:23.001Z,37.07
2022-12-18T16:27:52.413Z,37.34
2022-12-18T16:30:24.021Z,37.56
2022-12-18T16:32:52.399Z,37.78
2022-12-18T16:35:20.631Z,38.08
2022-12-18T16:37:48.717Z,38.01
2022-12-18T16:40:18.704Z,38.05
2022-12-18T16:42:47.460Z,38.76
2022-12-18T16:45:18.355Z,38.72
2022-12-18T16:47:46.923Z,39.77
2022-12-18T16:50:15.225Z,39.48
2022-12-18T16:52:43.426Z,39.44
2022-12-18T16:55:13.699Z,40.34
2022-12-18T16:57:41.813Z,40.59
2022-12-18T17:00:10.979Z,40.65
2022-12-18T17:02:39.540Z,40.77
2022-12-18T17:05:08.226Z,41.40
2022-12-18T17:07:36.714Z,41.42
2022-12-18T17:10:05.258Z,41.47
2022-12-18T17:12:33.480Z,41.40
2022-12-18T17:15:01.911Z,41.67
2022-12-18T17:17:30.180Z,41.76
2022-12-18T17:19:58.429Z,41.92
2022-12-18T17:22:26.815Z,41.95
2022-12-18T17:24:55.043Z,42.37
2022-12-18T17:27:23.215Z,42.28
2022-12-18T17:29:51.379Z,42.05
2022-12-18T17:32:19.644Z,42.43
2022-12-18T17:34:48.121Z,42.35
2022-12-18T17:37:16.423Z,42.40
2022-12-18T17:39:44.522Z,42.40
2022-12-18T17:42:15.672Z,42.58
2022-12-18T17:44:45.350Z,42.30
2022-12-18T17:47:14.070Z,42.86
2022-12-18T17:49:42.303Z,42.82
2022-12-18T17:52:11.213Z,43.41
2022-12-18T17:54:39.478Z,43.25
2022-12-18T17:57:07.853Z,43.23
2022-12-18T17:59:36.203Z,43.03
2022-12-18T18:02:04.495Z,43.17
2022-12-18T18:04:33.113Z,43.31
2022-12-18T18:07:01.479Z,43.41
2022-12-18T18:09:29.654Z,43.61
2022-12-18T18:11:57.786Z,43.60
2022-12-18T18:14:25.971Z,43.61
2022-12-18T18:16:55.142Z,43.97
2022-12-18T18:19:25.774Z,44.07
2022-12-18T18:21:54.656Z,44.67
2022-12-18T18:24:24.098Z,44.59
2022-12-18T18:26:52.278Z,44.86
2022-12-18T18:29:23.522Z,45.11
2022-12-18T18:31:51.953Z,44.76
2022-12-18T18:34:29.630Z,45.31
2022-12-18T18:36:58.125Z,45.46
2022-12-18T18:39:27.006Z,45.39
2022-12-18T18:41:55.238Z,45.41
2022-12-18T18:44:26.010Z,45.55
2022-12-18T18:46:56.854Z,46.05
2022-12-18T18:49:27.726Z,45.37
2022-12-18T18:51:57.909Z,45.40
2022-12-18T18:54:26.429Z,45.70
2022-12-18T18:59:42.875Z,45.07
2022-12-18T19:02:16.350Z,46.07
2022-12-18T19:04:45.979Z,45.51
2022-12-18T19:07:23.884Z,46.30
2022-12-18T19:10:04.016Z,46.27
2022-12-18T19:12:34.736Z,46.03
2022-12-18T19:15:06.071Z,45.49
2022-12-18T19:17:34.372Z,46.46
2022-12-18T19:20:05.121Z,46.02
2022-12-18T19:22:33.356Z,46.17
2022-12-18T19:25:01.654Z,46.68
2022-12-18T19:27:29.793Z,46.00
2022-12-18T19:29:58.319Z,46.49
2022-12-18T19:32:26.422Z,46.50
2022-12-18T19:34:54.554Z,46.11
2022-12-18T19:37:22.831Z,46.22
2022-12-18T19:39:51.164Z,46.34
2022-12-18T19:42:25.509Z,46.14
2022-12-18T19:44:56.517Z,46.63
2022-12-18T19:47:25.004Z,45.79
2022-12-18T19:49:53.382Z,46.49
2022-12-18T19:52:21.906Z,46.61
2022-12-18T19:54:49.990Z,46.26
2022-12-18T19:57:18.460Z,46.32
2022-12-18T19:59:46.633Z,45.27
2022-12-18T20:02:16.811Z,45.64
2022-12-18T20:04:45.090Z,45.41
2022-12-18T20:07:13.480Z,45.96
2022-12-18T20:09:41.821Z,45.47
2022-12-18T20:12:10.447Z,45.39
2022-12-18T20:14:38.616Z,45.91
2022-12-18T20:17:06.744Z,45.73
2022-12-18T20:19:35.373Z,46.26
2022-12-18T20:22:04.003Z,45.90
2022-12-18T20:24:32.355Z,45.86
2022-12-18T20:27:00.699Z,45.62
2022-12-18T20:29:29.468Z,45.55
2022-12-18T20:31:57.578Z,45.99
2022-12-18T20:34:26.024Z,45.96
2022-12-18T20:36:54.232Z,46.03
2022-12-18T20:39:22.869Z,45.40
2022-12-18T20:41:51.928Z,46.09
2022-12-18T20:44:22.740Z,45.79
2022-12-18T20:46:55.075Z,45.83
2022-12-18T20:49:25.060Z,45.83
2022-12-18T20:51:54.877Z,46.11
2022-12-18T20:54:25.534Z,46.38
2022-12-18T20:56:53.996Z,46.01
2022-12-18T20:59:22.199Z,45.83
2022-12-18T21:01:50.950Z,45.83
2022-12-18T21:04:19.352Z,45.89
2022-12-18T21:06:54.144Z,45.89
2022-12-18T21:09:38.320Z,45.47
2022-12-18T21:12:14.086Z,45.67
2022-12-18T21:14:43.010Z,46.03
2022-12-18T21:17:12.011Z,45.94
2022-12-18T21:19:40.392Z,45.78
2022-12-18T21:22:10.383Z,45.51
2022-12-18T21:24:38.777Z,45.55
2022-12-18T21:27:07.085Z,45.73
2022-12-18T21:29:35.761Z,45.83
2022-12-18T21:32:04.996Z,45.95
2022-12-18T21:34:33.369Z,45.86
2022-12-18T21:37:04.873Z,45.85
2022-12-18T21:39:33.517Z,46.10
2022-12-18T21:42:01.714Z,45.95
2022-12-18T21:44:30.663Z,45.97
2022-12-18T22:13:59.315Z,45.78
2022-12-18T22:16:28.312Z,46.02
2022-12-18T22:18:56.507Z,45.84
2022-12-18T22:21:33.665Z,45.81
2022-12-18T22:24:04.384Z,45.54
2022-12-18T22:26:39.822Z,45.23
2022-12-18T22:29:14.513Z,45.54
2022-12-18T22:31:43.380Z,45.54
2022-12-18T22:34:12.166Z,45.84
2022-12-18T22:36:46.356Z,46.13
2022-12-18T22:39:16.194Z,45.72
2022-12-18T22:41:45.061Z,45.51
2022-12-18T22:44:13.862Z,45.91
2022-12-18T22:47:05.766Z,46.03
2022-12-18T22:49:35.893Z,45.76
2022-12-18T22:52:06.459Z,45.85
2022-12-18T22:54:34.547Z,46.07
2022-12-18T22:57:02.660Z,45.93
2022-12-18T22:59:31.614Z,45.90
2022-12-18T23:01:59.872Z,45.92
2022-12-18T23:04:28.471Z,46.02
2022-12-18T23:07:06.111Z,45.86
2022-12-18T23:09:34.820Z,45.94
2022-12-18T23:12:03.933Z,45.89
2022-12-18T23:14:32.006Z,46.38
2022-12-18T23:17:00.394Z,45.96
2022-12-18T23:19:28.680Z,46.10
2022-12-18T23:21:59.060Z,46.31
2022-12-18T23:24:27.687Z,46.46
2022-12-18T23:26:58.977Z,47.00
2022-12-18T23:29:27.211Z,46.77
2022-12-18T23:31:55.542Z,46.38
2022-12-18T23:34:23.797Z,46.31
2022-12-18T23:36:56.015Z,46.71
2022-12-18T23:39:29.800Z,47.08
2022-12-18T23:41:59.086Z,46.86
2022-12-18T23:44:28.105Z,46.32
2022-12-18T23:46:56.344Z,46.54
2022-12-18T23:49:24.588Z,46.47
2022-12-18T23:51:54.708Z,46.65
2022-12-18T23:54:32.945Z,46.61
2022-12-18T23:57:02.153Z,46.65
2022-12-18T23:59:30.262Z,46.45
